createdAt,value
2024-02-17T00:00:50.484Z,19.70
2024-02-17T00:01:50.201Z,19.70
2024-02-17T00:02:50.128Z,19.72
2024-02-17T00:03:50.229Z,19.71
2024-02-17T00:04:50.235Z,19.72
2024-02-17T00:05:50.220Z,19.73
2024-02-17T00:06:50.263Z,19.73
2024-02-17T00:07:50.234Z,19.74
2024-02-17T00:08:50.310Z,19.76
2024-02-17T00:09:50.357Z,19.76
2024-02-17T00:10:50.311Z,19.76
2024-02-17T00:11:50.322Z,19.76
2024-02-17T00:12:50.375Z,19.77
2024-02-17T00:13:50.313Z,19.79
2024-02-17T00:14:50.313Z,19.80
2024-02-17T00:15:50.394Z,19.80
2024-02-17T00:16:50.326Z,19.81
2024-02-17T00:17:50.362Z,19.80
2024-02-17T00:18:50.443Z,19.82
2024-02-17T00:19:50.500Z,19.82
2024-02-17T00:20:50.410Z,19.83
2024-02-17T00:21:50.400Z,19.84
2024-02-17T00:22:50.409Z,19.84
2024-02-17T00:23:50.407Z,19.85
2024-02-17T00:24:50.527Z,19.85
2024-02-17T00:25:50.450Z,19.85
2024-02-17T00:26:50.444Z,19.86
2024-02-17T00:27:50.518Z,19.86
2024-02-17T00:28:50.516Z,19.87
2024-02-17T00:29:50.554Z,19.87
2024-02-17T00:30:50.549Z,19.87
2024-02-17T00:31:50.573Z,19.87
2024-02-17T00:32:50.608Z,19.87
2024-02-17T00:33:50.729Z,19.88
2024-02-17T00:34:50.671Z,19.88
2024-02-17T00:35:50.717Z,19.90
2024-02-17T00:36:50.707Z,19.89
2024-02-17T00:37:50.741Z,19.91
2024-02-17T00:38:50.790Z,19.91
2024-02-17T00:39:50.840Z,19.91
2024-02-17T00:40:50.798Z,19.91
2024-02-17T00:41:50.815Z,19.92
2024-02-17T00:42:50.868Z,19.93
2024-02-17T00:43:50.834Z,19.94
2024-02-17T00:44:50.828Z,19.95
2024-02-17T00:45:50.868Z,19.95
2024-02-17T00:46:50.857Z,19.96
2024-02-17T00:47:50.951Z,19.96
2024-02-17T00:48:51.045Z,19.97
2024-02-17T00:49:51.177Z,19.97
2024-02-17T00:50:57.775Z,19.97
2024-02-17T00:51:51.930Z,19.97
2024-02-17T00:52:50.925Z,19.98
2024-02-17T00:53:50.942Z,19.99
2024-02-17T00:54:50.988Z,20.00
2024-02-17T00:55:50.961Z,20.00
2024-02-17T00:56:50.927Z,20.00
2024-02-17T00:57:50.966Z,20.01
2024-02-17T00:58:50.931Z,20.01
2024-02-17T00:59:50.932Z,20.01
2024-02-17T01:00:51.107Z,20.02
2024-02-17T01:01:51.185Z,20.02
2024-02-17T01:02:50.925Z,20.03
2024-02-17T01:03:51.015Z,20.03
2024-02-17T01:04:51.029Z,20.02
2024-02-17T01:05:50.994Z,20.04
2024-02-17T01:06:51.077Z,20.04
2024-02-17T01:07:50.946Z,20.05
2024-02-17T01:08:50.943Z,20.04
2024-02-17T01:09:51.020Z,20.05
2024-02-17T01:10:51.082Z,20.05
2024-02-17T01:11:51.099Z,20.05
2024-02-17T01:12:51.167Z,20.06
2024-02-17T01:13:51.213Z,20.07
2024-02-17T01:14:51.244Z,20.06
2024-02-17T01:15:51.376Z,20.07
2024-02-17T01:16:51.409Z,20.07
2024-02-17T01:17:51.522Z,20.07
2024-02-17T01:18:51.736Z,20.07
2024-02-17T01:19:51.609Z,20.07
2024-02-17T01:20:51.587Z,20.08
2024-02-17T01:21:51.745Z,20.09
2024-02-17T01:22:51.676Z,20.10
2024-02-17T01:23:51.766Z,20.10
2024-02-17T01:24:51.851Z,20.09
2024-02-17T01:25:51.863Z,20.10
2024-02-17T01:26:51.906Z,20.10
2024-02-17T01:27:51.984Z,20.11
2024-02-17T01:28:51.990Z,20.11
2024-02-17T01:29:52.063Z,20.13
2024-02-17T01:30:52.129Z,20.13
2024-02-17T01:31:52.163Z,20.13
2024-02-17T01:32:52.217Z,20.14
2024-02-17T01:33:52.369Z,20.14
2024-02-17T01:34:52.357Z,20.13
2024-02-17T01:35:52.414Z,20.14
2024-02-17T01:36:52.498Z,20.14
2024-02-17T01:37:52.506Z,20.15
2024-02-17T01:38:52.533Z,20.15
2024-02-17T01:39:52.570Z,20.15
2024-02-17T01:40:52.595Z,20.15
2024-02-17T01:41:52.634Z,20.16
2024-02-17T01:42:52.702Z,20.15
2024-02-17T01:43:52.736Z,20.17
2024-02-17T01:44:52.829Z,20.17
2024-02-17T01:45:52.892Z,20.17
2024-02-17T01:46:52.916Z,20.17
2024-02-17T01:47:53.095Z,20.17
2024-02-17T01:48:53.255Z,20.17
2024-02-17T01:49:53.126Z,20.17
2024-02-17T01:50:53.163Z,20.17
2024-02-17T01:51:53.218Z,20.18
2024-02-17T01:52:53.231Z,20.18
2024-02-17T01:53:53.289Z,20.17
2024-02-17T01:54:53.370Z,20.18
2024-02-17T01:55:53.378Z,20.18
2024-02-17T01:56:53.431Z,20.18
2024-02-17T01:57:53.780Z,20.20
2024-02-17T01:58:53.576Z,20.19
2024-02-17T01:59:53.566Z,20.20
2024-02-17T02:00:53.720Z,20.20
2024-02-17T02:01:53.708Z,20.20
2024-02-17T02:02:53.781Z,20.20
2024-02-17T02:03:53.929Z,20.21
2024-02-17T02:04:53.987Z,20.21
2024-02-17T02:05:54.015Z,20.22
2024-02-17T02:06:54.104Z,20.21
2024-02-17T02:07:54.189Z,20.22
2024-02-17T02:08:54.224Z,20.21
2024-02-17T02:09:54.305Z,20.22
2024-02-17T02:10:54.374Z,20.22
2024-02-17T02:11:54.418Z,20.23
2024-02-17T02:12:54.618Z,20.23
2024-02-17T02:13:54.603Z,20.23
2024-02-17T02:14:54.761Z,20.24
2024-02-17T02:15:55.285Z,20.25
2024-02-17T02:16:54.792Z,20.24
2024-02-17T02:17:54.881Z,20.24
2024-02-17T02:18:54.975Z,20.26
2024-02-17T02:19:55.076Z,20.25
2024-02-17T02:20:55.029Z,20.26
2024-02-17T02:21:55.103Z,20.26
2024-02-17T02:22:55.182Z,20.25
2024-02-17T02:23:55.253Z,20.26
2024-02-17T02:24:55.336Z,20.26
2024-02-17T02:25:55.412Z,20.26
2024-02-17T02:26:55.480Z,20.27
2024-02-17T02:27:55.657Z,20.28
2024-02-17T02:28:55.616Z,20.28
2024-02-17T02:29:55.662Z,20.28
2024-02-17T02:30:55.788Z,20.28
2024-02-17T02:31:55.881Z,20.29
2024-02-17T02:32:55.991Z,20.29
2024-02-17T02:33:56.006Z,20.29
2024-02-17T02:34:56.140Z,20.29
2024-02-17T02:35:56.092Z,20.29
2024-02-17T02:36:56.157Z,20.29
2024-02-17T02:37:56.239Z,20.30
2024-02-17T02:38:56.269Z,20.29
2024-02-17T02:39:56.356Z,20.30
2024-02-17T02:40:56.394Z,20.30
2024-02-17T02:41:56.459Z,20.30
2024-02-17T02:42:56.562Z,20.31
2024-02-17T02:43:56.586Z,20.31
2024-02-17T02:44:56.651Z,20.31
2024-02-17T02:45:56.769Z,20.31
2024-02-17T02:46:56.767Z,20.32
2024-02-17T02:47:56.913Z,20.32
2024-02-17T02:48:56.966Z,20.32
2024-02-17T02:49:57.029Z,20.32
2024-02-17T02:50:57.050Z,20.32
2024-02-17T02:51:57.082Z,20.33
2024-02-17T02:52:57.158Z,20.33
2024-02-17T02:53:57.230Z,20.33
2024-02-17T02:54:57.303Z,20.34
2024-02-17T02:55:57.325Z,20.34
2024-02-17T02:56:57.380Z,20.34
2024-02-17T02:57:57.455Z,20.34
2024-02-17T02:58:57.499Z,20.35
2024-02-17T02:59:57.544Z,20.34
2024-02-17T03:00:57.681Z,20.34
2024-02-17T03:01:57.652Z,20.34
2024-02-17T03:02:57.744Z,20.35
2024-02-17T03:03:57.849Z,20.35
2024-02-17T03:04:57.815Z,20.35
2024-02-17T03:05:57.987Z,20.36
2024-02-17T03:06:58.027Z,20.36
2024-02-17T03:07:58.015Z,20.36
2024-02-17T03:08:58.101Z,20.36
2024-02-17T03:09:58.180Z,20.37
2024-02-17T03:10:58.251Z,20.37
2024-02-17T03:11:58.284Z,20.38
2024-02-17T03:12:58.351Z,20.36
2024-02-17T03:13:58.420Z,20.38
2024-02-17T03:14:58.467Z,20.38
2024-02-17T03:15:58.607Z,20.38
2024-02-17T03:16:58.608Z,20.38
2024-02-17T03:17:58.700Z,20.38
2024-02-17T03:18:58.871Z,20.38
2024-02-17T03:19:58.890Z,20.39
2024-02-17T03:20:58.849Z,20.39
2024-02-17T03:21:58.959Z,20.39
2024-02-17T03:22:58.976Z,20.41
2024-02-17T03:23:59.042Z,20.41
2024-02-17T03:24:59.115Z,20.41
2024-02-17T03:25:59.176Z,20.40
2024-02-17T03:26:59.229Z,20.41
2024-02-17T03:27:59.292Z,20.41
2024-02-17T03:28:59.374Z,20.41
2024-02-17T03:29:59.434Z,20.41
2024-02-17T03:30:59.483Z,20.40
2024-02-17T03:31:59.556Z,20.41
2024-02-17T03:32:59.692Z,20.41
2024-02-17T03:33:59.757Z,20.41
2024-02-17T03:34:59.844Z,20.41
2024-02-17T03:35:59.781Z,20.42
2024-02-17T03:36:59.861Z,20.42
2024-02-17T03:37:59.932Z,20.42
2024-02-17T03:38:59.982Z,20.42
2024-02-17T03:40:00.192Z,20.43
2024-02-17T03:41:00.122Z,20.43
2024-02-17T03:42:00.209Z,20.44
2024-02-17T03:43:00.222Z,20.45
2024-02-17T03:44:00.269Z,20.44
2024-02-17T03:45:00.328Z,20.44
2024-02-17T03:46:00.355Z,20.44
2024-02-17T03:47:00.420Z,20.45
2024-02-17T03:48:00.549Z,20.44
2024-02-17T03:49:00.686Z,20.45
2024-02-17T03:50:00.628Z,20.45
2024-02-17T03:51:00.614Z,20.46
2024-02-17T03:52:00.651Z,20.46
2024-02-17T03:53:00.709Z,20.45
2024-02-17T03:54:00.752Z,20.45
2024-02-17T03:55:00.824Z,20.45
2024-02-17T03:56:00.870Z,20.45
2024-02-17T03:57:00.924Z,20.46
2024-02-17T03:58:00.980Z,20.46
2024-02-17T03:59:01.027Z,20.46
2024-02-17T04:00:01.141Z,20.46
2024-02-17T04:01:01.317Z,20.47
2024-02-17T04:02:01.203Z,20.48
2024-02-17T04:03:22.284Z,20.48
2024-02-17T04:04:01.523Z,20.45
2024-02-17T04:05:01.318Z,20.47
2024-02-17T04:06:01.403Z,20.48
2024-02-17T04:07:01.367Z,20.48
2024-02-17T04:08:01.391Z,20.48
2024-02-17T04:09:01.260Z,20.48
2024-02-17T04:10:01.380Z,20.49
2024-02-17T04:11:01.307Z,20.49
2024-02-17T04:12:01.246Z,20.49
2024-02-17T04:13:01.247Z,20.50
2024-02-17T04:14:01.258Z,20.50
2024-02-17T04:15:01.265Z,20.50
2024-02-17T04:16:01.337Z,20.51
2024-02-17T04:17:01.244Z,20.51
2024-02-17T04:18:01.397Z,20.51
2024-02-17T04:19:01.388Z,20.51
2024-02-17T04:20:01.455Z,20.51
2024-02-17T04:21:01.276Z,20.52
2024-02-17T04:22:01.259Z,20.52
2024-02-17T04:23:01.257Z,20.52
2024-02-17T04:24:01.285Z,20.52
2024-02-17T04:25:01.271Z,20.52
2024-02-17T04:26:01.260Z,20.52
2024-02-17T04:27:01.275Z,20.53
2024-02-17T04:28:01.251Z,20.53
2024-02-17T04:29:01.255Z,20.53
2024-02-17T04:30:01.310Z,20.53
2024-02-17T04:31:01.285Z,20.53
2024-02-17T04:32:01.269Z,20.54
2024-02-17T04:33:01.311Z,20.53
2024-02-17T04:34:01.403Z,20.53
2024-02-17T04:35:01.378Z,20.54
2024-02-17T04:36:01.260Z,20.53
2024-02-17T04:37:01.309Z,20.54
2024-02-17T04:38:01.300Z,20.54
2024-02-17T04:39:08.569Z,20.53
2024-02-17T04:40:08.530Z,20.53
2024-02-17T04:41:08.549Z,20.54
2024-02-17T04:42:08.562Z,20.54
2024-02-17T04:43:08.546Z,20.54
2024-02-17T04:44:08.543Z,20.55
2024-02-17T04:45:08.572Z,20.55
2024-02-17T04:46:08.543Z,20.55
2024-02-17T04:47:08.549Z,20.55
2024-02-17T04:48:08.612Z,20.55
2024-02-17T04:49:08.730Z,20.56
2024-02-17T04:50:08.549Z,20.56
2024-02-17T04:51:08.570Z,20.57
2024-02-17T04:52:08.542Z,20.56
2024-02-17T04:53:08.548Z,20.57
2024-02-17T04:54:08.586Z,20.57
2024-02-17T04:55:08.571Z,20.57
2024-02-17T04:56:08.552Z,20.57
2024-02-17T04:57:08.668Z,20.58
2024-02-17T04:58:08.564Z,20.58
2024-02-17T04:59:08.564Z,20.58
2024-02-17T05:00:08.624Z,20.57
2024-02-17T05:01:08.623Z,20.57
2024-02-17T05:02:08.577Z,20.57
2024-02-17T05:03:08.651Z,20.57
2024-02-17T05:04:08.693Z,20.57
2024-02-17T05:05:08.578Z,20.58
2024-02-17T05:06:08.704Z,20.58
2024-02-17T05:07:08.608Z,20.57
2024-02-17T05:08:08.577Z,20.58
2024-02-17T05:09:08.585Z,20.58
2024-02-17T05:10:08.592Z,20.59
2024-02-17T05:11:08.594Z,20.59
2024-02-17T05:12:08.787Z,20.59
2024-02-17T05:13:08.775Z,20.59
2024-02-17T05:14:08.729Z,20.59
2024-02-17T05:15:08.817Z,20.59
2024-02-17T05:16:08.779Z,20.59
2024-02-17T05:17:08.815Z,20.60
2024-02-17T05:18:08.927Z,20.60
2024-02-17T05:19:08.930Z,20.60
2024-02-17T05:20:08.927Z,20.60
2024-02-17T05:21:08.979Z,20.61
2024-02-17T05:22:10.062Z,20.61
2024-02-17T05:23:09.024Z,20.61
2024-02-17T05:24:09.075Z,20.61
2024-02-17T05:25:09.125Z,20.61
2024-02-17T05:26:09.109Z,20.61
2024-02-17T05:27:09.179Z,20.61
2024-02-17T05:28:09.189Z,20.62
2024-02-17T05:29:09.229Z,20.63
2024-02-17T05:30:09.288Z,20.63
2024-02-17T05:31:09.291Z,20.63
2024-02-17T05:32:09.493Z,20.63
2024-02-17T05:33:09.518Z,20.64
2024-02-17T05:34:09.441Z,20.64
2024-02-17T05:35:09.510Z,20.64
2024-02-17T05:36:09.476Z,20.64
2024-02-17T05:37:09.499Z,20.64
2024-02-17T05:38:09.532Z,20.64
2024-02-17T05:39:09.624Z,20.64
2024-02-17T05:40:09.595Z,20.64
2024-02-17T05:41:09.653Z,20.65
2024-02-17T05:42:09.674Z,20.65
2024-02-17T05:43:09.707Z,20.66
2024-02-17T05:44:09.717Z,20.65
2024-02-17T05:45:09.866Z,20.66
2024-02-17T05:46:09.774Z,20.67
2024-02-17T05:47:09.801Z,20.67
2024-02-17T05:48:09.965Z,20.66
2024-02-17T05:49:09.940Z,20.67
2024-02-17T05:50:09.905Z,20.67
2024-02-17T05:51:10.003Z,20.67
2024-02-17T05:52:11.137Z,20.67
2024-02-17T05:53:10.009Z,20.67
2024-02-17T05:54:10.076Z,20.67
2024-02-17T05:55:10.055Z,20.67
2024-02-17T05:56:10.127Z,20.67
2024-02-17T05:57:10.161Z,20.67
2024-02-17T05:58:10.149Z,20.67
2024-02-17T05:59:10.200Z,20.67
2024-02-17T06:00:10.238Z,20.67
2024-02-17T06:01:10.377Z,20.68
2024-02-17T06:02:10.313Z,20.68
2024-02-17T06:03:10.386Z,20.68
2024-02-17T06:04:10.618Z,20.68
2024-02-17T06:05:10.478Z,20.69
2024-02-17T06:06:10.488Z,20.69
2024-02-17T06:07:10.581Z,20.69
2024-02-17T06:08:10.548Z,20.69
2024-02-17T06:09:10.592Z,20.69
2024-02-17T06:10:10.621Z,20.69
2024-02-17T06:11:10.716Z,20.70
2024-02-17T06:12:10.726Z,20.70
2024-02-17T06:13:10.738Z,20.70
2024-02-17T06:14:10.736Z,20.70
2024-02-17T06:15:10.851Z,20.70
2024-02-17T06:16:10.802Z,20.71
2024-02-17T06:17:10.832Z,20.71
2024-02-17T06:18:11.005Z,20.71
2024-02-17T06:19:10.994Z,20.71
2024-02-17T06:20:10.926Z,20.71
2024-02-17T06:21:11.012Z,20.71
2024-02-17T06:22:11.001Z,20.71
2024-02-17T06:23:11.080Z,20.72
2024-02-17T06:24:11.227Z,20.73
2024-02-17T06:25:11.102Z,20.73
2024-02-17T06:26:11.107Z,20.73
2024-02-17T06:27:11.169Z,20.73
2024-02-17T06:28:11.187Z,20.73
2024-02-17T06:29:11.213Z,20.73
2024-02-17T06:30:11.262Z,20.73
2024-02-17T06:31:11.282Z,20.73
2024-02-17T06:32:11.283Z,20.73
2024-02-17T06:33:11.486Z,20.74
2024-02-17T06:34:11.371Z,20.74
2024-02-17T06:35:11.441Z,20.74
2024-02-17T06:36:11.440Z,20.75
2024-02-17T06:37:11.426Z,20.74
2024-02-17T06:38:11.467Z,20.74
2024-02-17T06:39:11.527Z,20.74
2024-02-17T06:40:11.512Z,20.74
2024-02-17T06:41:11.536Z,20.74
2024-02-17T06:42:11.564Z,20.74
2024-02-17T06:43:11.595Z,20.74
2024-02-17T06:44:11.599Z,20.76
2024-02-17T06:45:11.744Z,20.76
2024-02-17T06:46:11.674Z,20.77
2024-02-17T06:47:11.688Z,20.76
2024-02-17T06:48:11.812Z,20.78
2024-02-17T06:49:11.826Z,20.77
2024-02-17T06:50:14.382Z,20.77
2024-02-17T06:51:11.831Z,20.78
2024-02-17T06:52:11.779Z,20.77
2024-02-17T06:53:11.789Z,20.77
2024-02-17T06:54:11.800Z,20.78
2024-02-17T06:55:11.780Z,20.79
2024-02-17T06:56:11.778Z,20.79
2024-02-17T06:57:11.810Z,20.78
2024-02-17T06:58:11.805Z,20.78
2024-02-17T06:59:11.804Z,20.78
2024-02-17T07:00:12.744Z,20.79
2024-02-17T07:01:11.892Z,20.78
2024-02-17T07:02:11.784Z,20.79
2024-02-17T07:03:11.820Z,20.79
2024-02-17T07:04:11.832Z,20.80
2024-02-17T07:05:11.863Z,20.79
2024-02-17T07:06:11.924Z,20.79
2024-02-17T07:07:11.884Z,20.80
2024-02-17T07:08:11.792Z,20.79
2024-02-17T07:09:11.823Z,20.79
2024-02-17T07:10:11.812Z,20.80
2024-02-17T07:11:11.829Z,20.80
2024-02-17T07:12:11.828Z,20.80
2024-02-17T07:13:11.798Z,20.80
2024-02-17T07:14:11.801Z,20.80
2024-02-17T07:15:11.830Z,20.80
2024-02-17T07:16:11.896Z,20.80
2024-02-17T07:17:11.821Z,20.81
2024-02-17T07:18:12.192Z,20.81
2024-02-17T07:19:11.891Z,20.81
2024-02-17T07:20:11.894Z,20.83
2024-02-17T07:21:11.835Z,20.82
2024-02-17T07:22:11.814Z,20.83
2024-02-17T07:23:11.828Z,20.84
2024-02-17T07:24:11.867Z,20.84
2024-02-17T07:25:11.838Z,20.84
2024-02-17T07:26:11.849Z,20.84
2024-02-17T07:27:11.879Z,20.85
2024-02-17T07:28:13.316Z,20.84
2024-02-17T07:29:11.838Z,20.84
2024-02-17T07:30:11.884Z,20.83
2024-02-17T07:31:11.841Z,20.83
2024-02-17T07:32:11.846Z,20.84
2024-02-17T07:33:12.174Z,20.84
2024-02-17T07:34:11.928Z,20.84
2024-02-17T07:35:11.893Z,20.85
2024-02-17T07:36:11.875Z,20.85
2024-02-17T07:37:11.881Z,20.86
2024-02-17T07:38:12.499Z,20.85
2024-02-17T07:39:11.922Z,20.86
2024-02-17T07:40:11.908Z,20.86
2024-02-17T07:41:11.901Z,20.86
2024-02-17T07:42:11.967Z,20.87
2024-02-17T07:43:11.935Z,20.86
2024-02-17T07:44:11.926Z,20.86
2024-02-17T07:45:11.959Z,20.87
2024-02-17T07:46:11.935Z,20.86
2024-02-17T07:47:11.949Z,20.87
2024-02-17T07:48:12.117Z,20.87
2024-02-17T07:49:12.069Z,20.86
2024-02-17T07:50:12.265Z,20.87
2024-02-17T07:51:12.077Z,20.87
2024-02-17T07:52:12.025Z,20.86
2024-02-17T07:53:12.058Z,20.88
2024-02-17T07:54:12.085Z,20.87
2024-02-17T07:55:12.098Z,20.88
2024-02-17T07:56:12.186Z,20.88
2024-02-17T07:57:12.187Z,20.88
2024-02-17T07:58:12.162Z,20.89
2024-02-17T07:59:12.166Z,20.88
2024-02-17T08:00:14.563Z,20.87
2024-02-17T08:01:12.444Z,20.88
2024-02-17T08:02:12.363Z,20.88
2024-02-17T08:03:12.413Z,20.89
2024-02-17T08:04:12.488Z,20.89
2024-02-17T08:05:12.475Z,20.89
2024-02-17T08:06:12.591Z,20.90
2024-02-17T08:07:12.550Z,20.90
2024-02-17T08:08:12.496Z,20.91
2024-02-17T08:09:12.536Z,20.90
2024-02-17T08:10:12.592Z,20.89
2024-02-17T08:11:12.560Z,20.89
2024-02-17T08:12:12.593Z,20.89
2024-02-17T08:13:12.545Z,20.90
2024-02-17T08:14:12.543Z,20.91
2024-02-17T08:15:12.611Z,20.90
2024-02-17T08:16:12.606Z,20.91
2024-02-17T08:17:12.580Z,20.91
2024-02-17T08:18:12.687Z,20.91
2024-02-17T08:19:12.695Z,20.91
2024-02-17T08:20:12.826Z,20.91
2024-02-17T08:21:12.719Z,20.91
2024-02-17T08:22:12.626Z,20.93
2024-02-17T08:23:12.640Z,20.93
2024-02-17T08:24:12.667Z,20.92
2024-02-17T08:25:12.668Z,20.92
2024-02-17T08:26:12.672Z,20.92
2024-02-17T08:27:12.709Z,20.93
2024-02-17T08:28:12.701Z,20.93
2024-02-17T08:29:12.731Z,20.92
2024-02-17T08:30:12.820Z,20.93
2024-02-17T08:31:12.755Z,20.93
2024-02-17T08:32:12.824Z,20.94
2024-02-17T08:33:13.791Z,20.94
2024-02-17T08:34:12.924Z,20.93
2024-02-17T08:35:12.914Z,20.93
2024-02-17T08:36:12.834Z,20.93
2024-02-17T08:37:12.811Z,20.93
2024-02-17T08:38:12.782Z,20.93
2024-02-17T08:39:12.811Z,20.93
2024-02-17T08:40:13.836Z,20.93
2024-02-17T08:41:12.804Z,20.93
2024-02-17T08:42:12.829Z,20.94
2024-02-17T08:43:12.813Z,20.93
2024-02-17T08:44:14.599Z,20.94
2024-02-17T08:45:12.871Z,20.94
2024-02-17T08:46:12.822Z,20.94
2024-02-17T08:47:12.841Z,20.95
2024-02-17T08:48:13.048Z,20.95
2024-02-17T08:49:12.900Z,20.94
2024-02-17T08:50:12.845Z,20.94
2024-02-17T08:51:12.916Z,20.95
2024-02-17T08:52:12.862Z,20.95
2024-02-17T08:53:12.881Z,20.96
2024-02-17T08:54:12.944Z,20.95
2024-02-17T08:55:12.950Z,20.96
2024-02-17T08:56:12.909Z,20.96
2024-02-17T08:57:13.013Z,20.95
2024-02-17T08:58:12.941Z,20.95
2024-02-17T08:59:12.986Z,20.96
2024-02-17T09:00:13.038Z,20.95
2024-02-17T09:01:13.319Z,20.96
2024-02-17T09:02:13.017Z,20.96
2024-02-17T09:03:13.070Z,20.96
2024-02-17T09:04:13.100Z,20.96
2024-02-17T09:05:13.105Z,20.96
2024-02-17T09:06:13.127Z,20.96
2024-02-17T09:07:13.172Z,20.97
2024-02-17T09:08:13.091Z,20.97
2024-02-17T09:09:13.117Z,20.97
2024-02-17T09:10:13.087Z,20.97
2024-02-17T09:11:14.870Z,20.97
2024-02-17T09:12:13.199Z,20.98
2024-02-17T09:13:13.195Z,20.98
2024-02-17T09:14:13.180Z,21.00
2024-02-17T09:15:13.250Z,20.99
2024-02-17T09:16:13.201Z,21.00
2024-02-17T09:17:13.214Z,21.01
2024-02-17T09:18:13.295Z,21.01
2024-02-17T09:19:13.287Z,21.01
2024-02-17T09:20:13.291Z,21.01
2024-02-17T09:21:13.247Z,21.01
2024-02-17T09:22:13.228Z,21.01
2024-02-17T09:23:13.223Z,21.01
2024-02-17T09:24:13.281Z,21.01
2024-02-17T09:25:13.265Z,21.01
2024-02-17T09:26:13.260Z,21.01
2024-02-17T09:27:13.312Z,21.02
2024-02-17T09:28:13.304Z,21.02
2024-02-17T09:29:13.273Z,21.03
2024-02-17T09:30:13.299Z,21.02
2024-02-17T09:31:13.280Z,21.03
2024-02-17T09:32:13.275Z,21.02
2024-02-17T09:33:13.462Z,21.02
2024-02-17T09:34:13.402Z,21.01
2024-02-17T09:35:13.350Z,21.02
2024-02-17T09:36:13.419Z,21.03
2024-02-17T09:37:13.292Z,21.05
2024-02-17T09:38:13.302Z,21.04
2024-02-17T09:39:13.329Z,21.04
2024-02-17T09:40:13.417Z,21.05
2024-02-17T09:41:13.345Z,21.05
2024-02-17T09:42:13.572Z,21.04
2024-02-17T09:43:13.450Z,21.05
2024-02-17T09:44:13.507Z,21.05
2024-02-17T09:45:13.599Z,21.04
2024-02-17T09:46:13.818Z,21.05
2024-02-17T09:47:13.744Z,21.04
2024-02-17T09:48:13.905Z,21.06
2024-02-17T09:49:14.605Z,21.06
2024-02-17T09:50:13.996Z,21.07
2024-02-17T09:51:13.986Z,21.07
2024-02-17T09:52:13.995Z,21.06
2024-02-17T09:53:14.039Z,21.07
2024-02-17T09:54:14.108Z,21.07
2024-02-17T09:55:14.149Z,21.08
2024-02-17T09:56:14.206Z,21.08
2024-02-17T09:57:14.336Z,21.08
2024-02-17T09:58:14.418Z,21.08
2024-02-17T09:59:14.361Z,21.10
2024-02-17T10:00:14.493Z,21.10
2024-02-17T10:01:14.541Z,21.10
2024-02-17T10:02:14.573Z,21.08
2024-02-17T10:03:14.688Z,21.09
2024-02-17T10:04:14.710Z,21.09
2024-02-17T10:05:14.675Z,21.09
2024-02-17T10:06:14.883Z,21.09
2024-02-17T10:07:14.799Z,21.10
2024-02-17T10:08:14.792Z,21.10
2024-02-17T10:09:14.862Z,21.12
2024-02-17T10:10:14.873Z,21.12
2024-02-17T10:11:15.029Z,21.12
2024-02-17T10:12:14.999Z,21.12
2024-02-17T10:13:15.024Z,21.11
2024-02-17T10:14:15.108Z,21.11
2024-02-17T10:15:15.172Z,21.11
2024-02-17T10:16:15.224Z,21.12
2024-02-17T10:17:15.268Z,21.13
2024-02-17T10:18:16.313Z,21.14
2024-02-17T10:19:15.434Z,21.13
2024-02-17T10:20:15.501Z,21.13
2024-02-17T10:21:15.554Z,21.14
2024-02-17T10:22:15.596Z,21.14
2024-02-17T10:23:15.693Z,21.14
2024-02-17T10:24:15.748Z,21.14
2024-02-17T10:25:15.789Z,21.14
2024-02-17T10:26:15.848Z,21.15
2024-02-17T10:27:15.937Z,21.14
2024-02-17T10:28:15.945Z,21.13
2024-02-17T10:29:15.989Z,21.14
2024-02-17T10:30:16.096Z,21.14
2024-02-17T10:31:16.096Z,21.14
2024-02-17T10:32:16.176Z,21.15
2024-02-17T10:33:16.443Z,21.14
2024-02-17T10:34:16.551Z,21.15
2024-02-17T10:35:16.440Z,21.14
2024-02-17T10:36:16.495Z,21.14
2024-02-17T10:37:16.543Z,21.15
2024-02-17T10:38:16.596Z,21.15
2024-02-17T10:39:16.752Z,21.16
2024-02-17T10:40:16.725Z,21.17
2024-02-17T10:41:16.794Z,21.15
2024-02-17T10:42:16.940Z,21.15
2024-02-17T10:43:16.931Z,21.15
2024-02-17T10:44:16.988Z,21.16
2024-02-17T10:45:17.158Z,21.17
2024-02-17T10:46:17.172Z,21.17
2024-02-17T10:47:17.234Z,21.17
2024-02-17T10:48:17.414Z,21.17
2024-02-17T10:49:17.467Z,21.16
2024-02-17T10:50:18.589Z,21.17
2024-02-17T10:51:17.506Z,21.18
2024-02-17T10:52:17.597Z,21.18
2024-02-17T10:53:17.684Z,21.18
2024-02-17T10:54:17.769Z,21.19
2024-02-17T10:55:17.761Z,21.20
2024-02-17T10:56:17.835Z,21.19
2024-02-17T10:57:17.933Z,21.19
2024-02-17T10:58:18.005Z,21.20
2024-02-17T10:59:18.033Z,21.21
2024-02-17T11:00:18.135Z,21.21
2024-02-17T11:01:18.411Z,21.21
2024-02-17T11:02:18.249Z,21.20
2024-02-17T11:03:18.429Z,21.21
2024-02-17T11:04:18.436Z,21.21
2024-02-17T11:05:18.565Z,21.22
2024-02-17T11:06:18.699Z,21.22
2024-02-17T11:07:18.701Z,21.22
2024-02-17T11:08:18.718Z,21.22
2024-02-17T11:09:18.809Z,21.23
2024-02-17T11:10:18.854Z,21.23
2024-02-17T11:11:18.928Z,21.23
2024-02-17T11:12:19.027Z,21.22
2024-02-17T11:13:19.046Z,21.23
2024-02-17T11:14:19.122Z,21.22
2024-02-17T11:15:19.235Z,21.22
2024-02-17T11:16:19.318Z,21.22
2024-02-17T11:17:19.347Z,21.23
2024-02-17T11:18:19.450Z,21.23
2024-02-17T11:19:28.516Z,21.23
2024-02-17T11:20:20.640Z,21.22
2024-02-17T11:21:19.537Z,21.22
2024-02-17T11:22:19.500Z,21.23
2024-02-17T11:23:19.489Z,21.23
2024-02-17T11:24:19.576Z,21.23
2024-02-17T11:25:19.504Z,21.23
2024-02-17T11:26:28.986Z,21.23
2024-02-17T11:27:20.524Z,21.23
2024-02-17T11:28:19.521Z,21.24
2024-02-17T11:29:19.533Z,21.23
2024-02-17T11:30:20.064Z,21.23
2024-02-17T11:31:19.535Z,21.24
2024-02-17T11:32:19.510Z,21.25
2024-02-17T11:33:19.657Z,21.25
2024-02-17T11:34:19.617Z,21.25
2024-02-17T11:35:19.658Z,21.25
2024-02-17T11:36:19.788Z,21.25
2024-02-17T11:37:19.772Z,21.25
2024-02-17T11:38:19.795Z,21.25
2024-02-17T11:39:19.949Z,21.26
2024-02-17T11:40:19.928Z,21.26
2024-02-17T11:41:19.981Z,21.25
2024-02-17T11:42:20.160Z,21.26
2024-02-17T11:43:20.083Z,21.26
2024-02-17T11:44:20.136Z,21.28
2024-02-17T11:45:20.200Z,21.28
2024-02-17T11:46:20.242Z,21.28
2024-02-17T11:47:20.279Z,21.28
2024-02-17T11:48:20.400Z,21.30
2024-02-17T11:49:20.480Z,21.29
2024-02-17T11:50:20.555Z,21.29
2024-02-17T11:51:20.983Z,21.29
2024-02-17T11:52:20.637Z,21.31
2024-02-17T11:53:25.733Z,21.30
2024-02-17T11:54:20.730Z,21.31
2024-02-17T11:55:20.713Z,21.30
2024-02-17T11:56:20.683Z,21.30
2024-02-17T11:57:20.721Z,21.30
2024-02-17T11:58:20.707Z,21.30
2024-02-17T11:59:20.686Z,21.30
2024-02-17T12:00:20.824Z,21.30
2024-02-17T12:01:20.904Z,21.30
2024-02-17T12:02:20.894Z,21.31
2024-02-17T12:03:20.993Z,21.30
2024-02-17T12:04:21.144Z,21.31
2024-02-17T12:05:21.409Z,21.31
2024-02-17T12:06:21.296Z,21.32
2024-02-17T12:07:21.317Z,21.33
2024-02-17T12:08:21.308Z,21.33
2024-02-17T12:09:21.465Z,21.33
2024-02-17T12:10:21.445Z,21.33
2024-02-17T12:11:21.580Z,21.32
2024-02-17T12:12:21.589Z,21.32
2024-02-17T12:13:21.688Z,21.32
2024-02-17T12:14:21.717Z,21.33
2024-02-17T12:15:21.881Z,21.33
2024-02-17T12:16:21.874Z,21.33
2024-02-17T12:17:21.980Z,21.34
2024-02-17T12:18:22.126Z,21.34
2024-02-17T12:19:22.159Z,21.34
2024-02-17T12:20:22.145Z,21.35
2024-02-17T12:21:22.277Z,21.35
2024-02-17T12:22:22.282Z,21.36
2024-02-17T12:23:22.349Z,21.34
2024-02-17T12:24:22.490Z,21.35
2024-02-17T12:25:22.520Z,21.35
2024-02-17T12:26:32.929Z,21.35
2024-02-17T12:27:23.612Z,21.34
2024-02-17T12:28:22.586Z,21.35
2024-02-17T12:29:22.566Z,21.35
2024-02-17T12:30:22.605Z,21.34
2024-02-17T12:31:22.582Z,21.34
2024-02-17T12:32:22.594Z,21.35
2024-02-17T12:33:22.969Z,21.34
2024-02-17T12:34:22.685Z,21.34
2024-02-17T12:35:22.788Z,21.34
2024-02-17T12:36:23.053Z,21.35
2024-02-17T12:37:22.713Z,21.35
2024-02-17T12:38:22.783Z,21.35
2024-02-17T12:39:22.877Z,21.36
2024-02-17T12:40:22.928Z,21.36
2024-02-17T12:41:22.961Z,21.36
2024-02-17T12:42:23.074Z,21.35
2024-02-17T12:43:23.079Z,21.36
2024-02-17T12:44:24.487Z,21.35
2024-02-17T12:45:23.273Z,21.35
2024-02-17T12:46:23.322Z,21.35
2024-02-17T12:47:23.347Z,21.34
2024-02-17T12:48:23.587Z,21.35
2024-02-17T12:49:23.546Z,21.36
2024-02-17T12:50:24.609Z,21.36
2024-02-17T12:51:23.670Z,21.36
2024-02-17T12:52:23.659Z,21.36
2024-02-17T12:53:23.726Z,21.36